Latest METARs, TAFs and NOTAMs for SEGU


---------------------------------------------------------------------------
	(OBSERVATIONS)
SEGU 230800Z 22010KT 9999 BKN010 SCT030 22/19 Q1009 NOSIG RMK
    A 2979=
SEGU 230700Z 22010KT 9999 BKN010 22/19 Q1010 NOSIG RMK A2981=
SEGU 230600Z 21012KT 9999 FEW009 22/19 Q1010 NOSIG RMK A2982=
---------------------------------------------------------------------------
	(TERMINAL AREA FORECAST)
SEGU 230445Z 2306/2406 20012KT 9999 FEW030
    BECMG 2307/2308 BKN020 BKN100
    BECMG 2310/2311 23008KT
    FM231700 14005KT 9999 SCT026 SCT100
    FM240000 20012KT CAVOK TX30/2320Z TN21/2309Z=
---------------------------------------------------------------------------
	(NOTAMS)


SEGU A0055/09 APN NORTE CLSD POR INCIDENTE DE ACFT 27 JAN 05:30
    UNTIL 27 JAN 18:00 ESTIMATED

SEGU A1114/18 LAUNCH OF BALLOONS WITH PROBE WILL TAKE PLACE FM
    STN GUAYAQUIL COORD 021618S 0795414W VSP 10 - 13FT/SEC HGT
    OF PROBING 83000FT. CTN. SFC - UNL, MON, WED AND FRI 1015-1215,
    25 JUL 10:15 2018 UNTIL 26 OCT 12:15 2018. CREATED: 23 JUL
    17:40 2018

SEGU A1217/18 WIP IN GREEN AREAS MOV AREA, SUBJ TFC. CTN. 18
    AUG 12:28 2018 UNTIL 19 NOV 04:59 2018. CREATED: 18 AUG 12:29
    2018

SEGU A1218/18 MOV AREA WIP SUBJ TFC. CTN. 18 AUG 12:30 2018 UNTIL
    19 NOV 04:59 2018. CREATED: 18 AUG 12:30 2018

SEGU A1260/18 TEMPO RESTRICTED AREA DUE TO PARAGLIDING SECT COORD:
    014816.55S 0801355.75W - 015448.61S 0800112.93W - 021119.95S
    0795830.87W -021452.50S 0801155.62W. CTN. SFC - 4600FT AGL,
    AUG 31-SEP 02 1600-2100 OCT 11-14 1600-2100 NOV 02-20 1600-2100,
    31 AUG 16:00 2018 UNTIL 20 NOV 21:00 2018. CREATED: 30 AUG
    16:43 2018

SEGU A1314/18 RWY 03/21 CLSD DUE TO MAINT. AUTH OPR HEL. 24 NOV
    14:00 2018 UNTIL 24 NOV 20:00 2018. CREATED: 11 SEP 15:20
    2018

SEGU A1327/18 AD COORDINATED FOR NTL ARR IFR FLT ONLY. 24 NOV
    18:00 2018 UNTIL 24 NOV 21:00 2018. CREATED: 13 SEP 21:22
    2018

SEGU A1463/06 COMBUSTIBLE JET A-1 RESTRINGIDO 20 POR CIENTO 26
    DEC 20:45 2006 UNTIL 04 JAN 23:00 ESTIMATED

---------------------------------------------------------------------------